sensor_id;sensor_type;location;lat;lon;timestamp;P1;durP1;ratioP1;P2;durP2;ratioP2
60730;SDS011;46580;52.114;11.674;2024-03-07T00:00:10;15.77;;;9.53;;
60730;SDS011;46580;52.114;11.674;2024-03-07T00:02:44;20.27;;;10.00;;
60730;SDS011;46580;52.114;11.674;2024-03-07T00:05:11;15.90;;;9.43;;
60730;SDS011;46580;52.114;11.674;2024-03-07T00:07:38;17.57;;;9.60;;
60730;SDS011;46580;52.114;11.674;2024-03-07T00:10:04;16.43;;;9.43;;
60730;SDS011;46580;52.114;11.674;2024-03-07T00:12:35;16.47;;;9.93;;
60730;SDS011;46580;52.114;11.674;2024-03-07T00:15:02;22.40;;;10.23;;
60730;SDS011;46580;52.114;11.674;2024-03-07T00:17:28;18.07;;;10.27;;
60730;SDS011;46580;52.114;11.674;2024-03-07T00:19:54;19.13;;;9.87;;
60730;SDS011;46580;52.114;11.674;2024-03-07T00:22:20;18.57;;;10.30;;
60730;SDS011;46580;52.114;11.674;2024-03-07T00:24:46;17.30;;;9.83;;
60730;SDS011;46580;52.114;11.674;2024-03-07T00:27:12;19.00;;;10.17;;
60730;SDS011;46580;52.114;11.674;2024-03-07T00:29:39;20.13;;;9.67;;
60730;SDS011;46580;52.114;11.674;2024-03-07T00:32:05;15.73;;;9.10;;
60730;SDS011;46580;52.114;11.674;2024-03-07T00:34:32;19.27;;;9.57;;
60730;SDS011;46580;52.114;11.674;2024-03-07T00:36:57;20.67;;;11.20;;
60730;SDS011;46580;52.114;11.674;2024-03-07T00:39:24;18.63;;;9.97;;
60730;SDS011;46580;52.114;11.674;2024-03-07T00:41:50;16.53;;;9.63;;
60730;SDS011;46580;52.114;11.674;2024-03-07T00:44:15;16.67;;;9.07;;
60730;SDS011;46580;52.114;11.674;2024-03-07T00:46:41;20.10;;;10.50;;
60730;SDS011;46580;52.114;11.674;2024-03-07T00:49:06;19.80;;;9.87;;
60730;SDS011;46580;52.114;11.674;2024-03-07T00:51:32;15.33;;;9.10;;
60730;SDS011;46580;52.114;11.674;2024-03-07T00:53:59;21.03;;;9.50;;
60730;SDS011;46580;52.114;11.674;2024-03-07T00:56:24;21.27;;;11.03;;
60730;SDS011;46580;52.114;11.674;2024-03-07T00:58:51;16.97;;;9.03;;
60730;SDS011;46580;52.114;11.674;2024-03-07T01:01:17;17.67;;;9.70;;
60730;SDS011;46580;52.114;11.674;2024-03-07T01:03:43;15.67;;;9.27;;
60730;SDS011;46580;52.114;11.674;2024-03-07T01:06:10;18.67;;;10.33;;
60730;SDS011;46580;52.114;11.674;2024-03-07T01:08:36;19.50;;;10.53;;
60730;SDS011;46580;52.114;11.674;2024-03-07T01:11:03;19.63;;;9.63;;
60730;SDS011;46580;52.114;11.674;2024-03-07T01:13:40;16.23;;;9.43;;
60730;SDS011;46580;52.114;11.674;2024-03-07T01:16:07;16.37;;;9.07;;
60730;SDS011;46580;52.114;11.674;2024-03-07T01:18:33;17.63;;;9.27;;
60730;SDS011;46580;52.114;11.674;2024-03-07T01:20:59;16.83;;;9.33;;
60730;SDS011;46580;52.114;11.674;2024-03-07T01:23:25;20.43;;;9.50;;
60730;SDS011;46580;52.114;11.674;2024-03-07T01:25:50;19.50;;;10.63;;
60730;SDS011;46580;52.114;11.674;2024-03-07T01:28:16;23.13;;;11.40;;
60730;SDS011;46580;52.114;11.674;2024-03-07T01:30:43;17.63;;;9.00;;
60730;SDS011;46580;52.114;11.674;2024-03-07T01:33:08;19.53;;;9.73;;
60730;SDS011;46580;52.114;11.674;2024-03-07T01:35:34;21.03;;;10.63;;
60730;SDS011;46580;52.114;11.674;2024-03-07T01:38:01;18.57;;;9.63;;
60730;SDS011;46580;52.114;11.674;2024-03-07T01:40:28;16.97;;;9.60;;
60730;SDS011;46580;52.114;11.674;2024-03-07T01:42:54;19.90;;;11.17;;
60730;SDS011;46580;52.114;11.674;2024-03-07T01:45:20;18.70;;;10.20;;
60730;SDS011;46580;52.114;11.674;2024-03-07T01:47:45;19.27;;;11.03;;
60730;SDS011;46580;52.114;11.674;2024-03-07T01:50:11;20.33;;;11.63;;
60730;SDS011;46580;52.114;11.674;2024-03-07T01:52:38;21.10;;;11.00;;
60730;SDS011;46580;52.114;11.674;2024-03-07T01:55:05;18.27;;;10.07;;
60730;SDS011;46580;52.114;11.674;2024-03-07T01:57:31;21.67;;;10.23;;
60730;SDS011;46580;52.114;11.674;2024-03-07T01:59:57;18.17;;;10.23;;
60730;SDS011;46580;52.114;11.674;2024-03-07T02:02:22;15.97;;;8.67;;
60730;SDS011;46580;52.114;11.674;2024-03-07T02:04:48;21.10;;;11.50;;
60730;SDS011;46580;52.114;11.674;2024-03-07T02:07:14;19.77;;;10.60;;
60730;SDS011;46580;52.114;11.674;2024-03-07T02:09:40;17.77;;;10.07;;
60730;SDS011;46580;52.114;11.674;2024-03-07T02:12:06;21.33;;;11.00;;
60730;SDS011;46580;52.114;11.674;2024-03-07T02:14:33;19.90;;;10.83;;
60730;SDS011;46580;52.114;11.674;2024-03-07T02:16:59;22.47;;;11.67;;
60730;SDS011;46580;52.114;11.674;2024-03-07T02:19:24;19.30;;;10.17;;
60730;SDS011;46580;52.114;11.674;2024-03-07T02:21:50;19.60;;;10.87;;
60730;SDS011;46580;52.114;11.674;2024-03-07T02:24:15;19.93;;;10.00;;
60730;SDS011;46580;52.114;11.674;2024-03-07T02:26:41;17.47;;;10.73;;
60730;SDS011;46580;52.114;11.674;2024-03-07T02:29:07;21.67;;;11.20;;
60730;SDS011;46580;52.114;11.674;2024-03-07T02:31:33;24.03;;;11.37;;
60730;SDS011;46580;52.114;11.674;2024-03-07T02:34:05;21.63;;;11.67;;
60730;SDS011;46580;52.114;11.674;2024-03-07T02:36:32;21.80;;;12.23;;
60730;SDS011;46580;52.114;11.674;2024-03-07T02:38:58;20.67;;;11.33;;
60730;SDS011;46580;52.114;11.674;2024-03-07T02:41:25;22.60;;;11.90;;
60730;SDS011;46580;52.114;11.674;2024-03-07T02:43:51;26.10;;;11.50;;
60730;SDS011;46580;52.114;11.674;2024-03-07T02:46:18;18.27;;;10.27;;
60730;SDS011;46580;52.114;11.674;2024-03-07T02:48:43;21.27;;;11.53;;
60730;SDS011;46580;52.114;11.674;2024-03-07T02:51:09;24.70;;;11.77;;
60730;SDS011;46580;52.114;11.674;2024-03-07T02:53:34;24.77;;;12.03;;
60730;SDS011;46580;52.114;11.674;2024-03-07T02:56:00;30.87;;;13.23;;
60730;SDS011;46580;52.114;11.674;2024-03-07T02:58:25;25.53;;;11.87;;
60730;SDS011;46580;52.114;11.674;2024-03-07T03:00:58;23.53;;;11.90;;
60730;SDS011;46580;52.114;11.674;2024-03-07T03:03:28;23.83;;;11.40;;
60730;SDS011;46580;52.114;11.674;2024-03-07T03:05:56;20.13;;;11.23;;
60730;SDS011;46580;52.114;11.674;2024-03-07T03:08:21;20.67;;;11.30;;
60730;SDS011;46580;52.114;11.674;2024-03-07T03:10:47;23.60;;;11.50;;
60730;SDS011;46580;52.114;11.674;2024-03-07T03:13:12;24.10;;;11.27;;
60730;SDS011;46580;52.114;11.674;2024-03-07T03:15:38;24.93;;;11.33;;
60730;SDS011;46580;52.114;11.674;2024-03-07T03:18:04;22.80;;;11.90;;
60730;SDS011;46580;52.114;11.674;2024-03-07T03:20:30;22.73;;;12.27;;
60730;SDS011;46580;52.114;11.674;2024-03-07T03:22:59;29.30;;;12.27;;
60730;SDS011;46580;52.114;11.674;2024-03-07T03:25:26;28.47;;;13.87;;
60730;SDS011;46580;52.114;11.674;2024-03-07T03:27:52;26.10;;;12.10;;
60730;SDS011;46580;52.114;11.674;2024-03-07T03:30:17;30.77;;;14.60;;
60730;SDS011;46580;52.114;11.674;2024-03-07T03:32:45;28.80;;;13.00;;
60730;SDS011;46580;52.114;11.674;2024-03-07T03:35:11;32.43;;;13.70;;
60730;SDS011;46580;52.114;11.674;2024-03-07T03:37:41;35.93;;;14.60;;
60730;SDS011;46580;52.114;11.674;2024-03-07T03:40:09;36.33;;;15.70;;
60730;SDS011;46580;52.114;11.674;2024-03-07T03:42:36;36.77;;;14.73;;
60730;SDS011;46580;52.114;11.674;2024-03-07T03:45:03;32.93;;;14.13;;
60730;SDS011;46580;52.114;11.674;2024-03-07T03:47:35;28.43;;;13.77;;
60730;SDS011;46580;52.114;11.674;2024-03-07T03:50:05;28.43;;;12.33;;
60730;SDS011;46580;52.114;11.674;2024-03-07T03:52:31;35.83;;;15.20;;
60730;SDS011;46580;52.114;11.674;2024-03-07T03:54:57;37.67;;;15.73;;
60730;SDS011;46580;52.114;11.674;2024-03-07T03:57:24;33.17;;;15.30;;
60730;SDS011;46580;52.114;11.674;2024-03-07T03:59:50;36.80;;;15.13;;
60730;SDS011;46580;52.114;11.674;2024-03-07T04:02:15;32.27;;;14.87;;
60730;SDS011;46580;52.114;11.674;2024-03-07T04:04:42;36.60;;;15.83;;
60730;SDS011;46580;52.114;11.674;2024-03-07T04:07:07;32.90;;;14.53;;
60730;SDS011;46580;52.114;11.674;2024-03-07T04:09:33;36.53;;;15.90;;
60730;SDS011;46580;52.114;11.674;2024-03-07T04:11:58;35.00;;;14.70;;
60730;SDS011;46580;52.114;11.674;2024-03-07T04:14:24;35.47;;;16.57;;
60730;SDS011;46580;52.114;11.674;2024-03-07T04:16:49;36.43;;;15.30;;
60730;SDS011;46580;52.114;11.674;2024-03-07T04:19:15;41.17;;;16.50;;
60730;SDS011;46580;52.114;11.674;2024-03-07T04:21:40;39.30;;;18.13;;
60730;SDS011;46580;52.114;11.674;2024-03-07T04:24:06;38.90;;;16.70;;
60730;SDS011;46580;52.114;11.674;2024-03-07T04:26:32;49.97;;;16.77;;
60730;SDS011;46580;52.114;11.674;2024-03-07T04:28:57;44.03;;;17.77;;
60730;SDS011;46580;52.114;11.674;2024-03-07T04:31:23;42.53;;;16.53;;
60730;SDS011;46580;52.114;11.674;2024-03-07T04:33:48;45.20;;;17.27;;
60730;SDS011;46580;52.114;11.674;2024-03-07T04:36:16;46.33;;;19.30;;
60730;SDS011;46580;52.114;11.674;2024-03-07T04:38:41;53.87;;;19.70;;
60730;SDS011;46580;52.114;11.674;2024-03-07T04:41:10;62.67;;;19.40;;
60730;SDS011;46580;52.114;11.674;2024-03-07T04:43:36;66.03;;;22.03;;
60730;SDS011;46580;52.114;11.674;2024-03-07T04:46:02;62.07;;;21.07;;
60730;SDS011;46580;52.114;11.674;2024-03-07T04:48:27;54.87;;;18.90;;
60730;SDS011;46580;52.114;11.674;2024-03-07T04:50:53;56.67;;;20.60;;
60730;SDS011;46580;52.114;11.674;2024-03-07T04:53:18;61.80;;;19.67;;
60730;SDS011;46580;52.114;11.674;2024-03-07T04:55:43;64.87;;;19.30;;
60730;SDS011;46580;52.114;11.674;2024-03-07T04:58:09;64.20;;;17.93;;
60730;SDS011;46580;52.114;11.674;2024-03-07T05:00:34;53.33;;;19.80;;
60730;SDS011;46580;52.114;11.674;2024-03-07T05:02:59;59.33;;;20.30;;
60730;SDS011;46580;52.114;11.674;2024-03-07T05:05:25;52.37;;;19.83;;
60730;SDS011;46580;52.114;11.674;2024-03-07T05:07:51;54.63;;;21.70;;
60730;SDS011;46580;52.114;11.674;2024-03-07T05:10:18;57.40;;;18.47;;
60730;SDS011;46580;52.114;11.674;2024-03-07T05:12:43;52.20;;;19.47;;
60730;SDS011;46580;52.114;11.674;2024-03-07T05:15:08;55.90;;;17.37;;
60730;SDS011;46580;52.114;11.674;2024-03-07T05:17:37;59.97;;;18.37;;
60730;SDS011;46580;52.114;11.674;2024-03-07T05:20:04;59.80;;;19.40;;
60730;SDS011;46580;52.114;11.674;2024-03-07T05:22:36;72.80;;;22.10;;
60730;SDS011;46580;52.114;11.674;2024-03-07T05:25:05;66.30;;;19.57;;
60730;SDS011;46580;52.114;11.674;2024-03-07T05:27:31;54.63;;;16.93;;
60730;SDS011;46580;52.114;11.674;2024-03-07T05:29:58;51.67;;;15.53;;
60730;SDS011;46580;52.114;11.674;2024-03-07T05:32:24;62.00;;;19.00;;
60730;SDS011;46580;52.114;11.674;2024-03-07T05:34:53;50.20;;;18.60;;
60730;SDS011;46580;52.114;11.674;2024-03-07T05:37:19;63.80;;;19.83;;
60730;SDS011;46580;52.114;11.674;2024-03-07T05:39:48;62.20;;;20.40;;
60730;SDS011;46580;52.114;11.674;2024-03-07T05:42:17;31.53;;;13.03;;
60730;SDS011;46580;52.114;11.674;2024-03-07T05:44:43;66.00;;;20.00;;
60730;SDS011;46580;52.114;11.674;2024-03-07T05:47:09;58.63;;;18.27;;
60730;SDS011;46580;52.114;11.674;2024-03-07T05:49:35;57.10;;;20.57;;
60730;SDS011;46580;52.114;11.674;2024-03-07T05:52:01;54.03;;;18.97;;
60730;SDS011;46580;52.114;11.674;2024-03-07T05:54:27;60.50;;;20.63;;
60730;SDS011;46580;52.114;11.674;2024-03-07T05:56:54;55.10;;;20.23;;
60730;SDS011;46580;52.114;11.674;2024-03-07T05:59:21;57.70;;;21.57;;
60730;SDS011;46580;52.114;11.674;2024-03-07T06:01:46;64.23;;;20.30;;
60730;SDS011;46580;52.114;11.674;2024-03-07T06:04:13;46.10;;;20.27;;
60730;SDS011;46580;52.114;11.674;2024-03-07T06:06:38;53.43;;;18.93;;
60730;SDS011;46580;52.114;11.674;2024-03-07T06:09:05;58.73;;;21.23;;
60730;SDS011;46580;52.114;11.674;2024-03-07T06:11:38;59.00;;;20.57;;
60730;SDS011;46580;52.114;11.674;2024-03-07T06:14:04;68.00;;;21.73;;
60730;SDS011;46580;52.114;11.674;2024-03-07T06:16:31;59.50;;;18.97;;
60730;SDS011;46580;52.114;11.674;2024-03-07T06:18:59;60.03;;;20.47;;
60730;SDS011;46580;52.114;11.674;2024-03-07T06:21:26;63.40;;;20.27;;
60730;SDS011;46580;52.114;11.674;2024-03-07T06:23:52;57.33;;;20.57;;
60730;SDS011;46580;52.114;11.674;2024-03-07T06:26:24;58.03;;;21.90;;
60730;SDS011;46580;52.114;11.674;2024-03-07T06:29:13;60.00;;;19.63;;
60730;SDS011;46580;52.114;11.674;2024-03-07T06:31:41;53.93;;;21.77;;
60730;SDS011;46580;52.114;11.674;2024-03-07T06:34:06;63.13;;;23.10;;
60730;SDS011;46580;52.114;11.674;2024-03-07T06:36:33;52.23;;;22.07;;
60730;SDS011;46580;52.114;11.674;2024-03-07T06:38:59;58.17;;;20.93;;
60730;SDS011;46580;52.114;11.674;2024-03-07T06:41:24;56.87;;;21.03;;
60730;SDS011;46580;52.114;11.674;2024-03-07T06:43:50;47.43;;;19.73;;
60730;SDS011;46580;52.114;11.674;2024-03-07T06:46:18;51.73;;;18.73;;
60730;SDS011;46580;52.114;11.674;2024-03-07T06:48:45;61.23;;;21.47;;
60730;SDS011;46580;52.114;11.674;2024-03-07T06:51:10;45.27;;;20.67;;
60730;SDS011;46580;52.114;11.674;2024-03-07T06:53:36;62.33;;;21.13;;
60730;SDS011;46580;52.114;11.674;2024-03-07T06:56:04;58.13;;;21.53;;
60730;SDS011;46580;52.114;11.674;2024-03-07T06:58:31;47.13;;;18.77;;
60730;SDS011;46580;52.114;11.674;2024-03-07T07:00:57;43.97;;;16.97;;
60730;SDS011;46580;52.114;11.674;2024-03-07T07:03:24;51.53;;;18.60;;
60730;SDS011;46580;52.114;11.674;2024-03-07T07:05:53;55.47;;;20.30;;
60730;SDS011;46580;52.114;11.674;2024-03-07T07:08:19;47.70;;;19.63;;
60730;SDS011;46580;52.114;11.674;2024-03-07T07:10:44;61.67;;;21.33;;
60730;SDS011;46580;52.114;11.674;2024-03-07T07:13:10;50.67;;;20.07;;
60730;SDS011;46580;52.114;11.674;2024-03-07T07:15:35;52.63;;;18.37;;
60730;SDS011;46580;52.114;11.674;2024-03-07T07:18:02;54.93;;;20.57;;
60730;SDS011;46580;52.114;11.674;2024-03-07T07:20:27;44.17;;;18.13;;
60730;SDS011;46580;52.114;11.674;2024-03-07T07:22:53;49.47;;;19.23;;
60730;SDS011;46580;52.114;11.674;2024-03-07T07:25:18;46.33;;;20.70;;
60730;SDS011;46580;52.114;11.674;2024-03-07T07:27:49;41.73;;;17.77;;
60730;SDS011;46580;52.114;11.674;2024-03-07T07:30:16;49.87;;;18.50;;
60730;SDS011;46580;52.114;11.674;2024-03-07T07:32:49;54.33;;;20.80;;
60730;SDS011;46580;52.114;11.674;2024-03-07T07:35:19;47.60;;;18.50;;
60730;SDS011;46580;52.114;11.674;2024-03-07T07:37:46;41.23;;;18.67;;
60730;SDS011;46580;52.114;11.674;2024-03-07T07:40:14;52.30;;;19.93;;
60730;SDS011;46580;52.114;11.674;2024-03-07T07:42:43;51.23;;;18.70;;
60730;SDS011;46580;52.114;11.674;2024-03-07T07:45:11;57.10;;;16.67;;
60730;SDS011;46580;52.114;11.674;2024-03-07T07:47:44;34.43;;;15.20;;
60730;SDS011;46580;52.114;11.674;2024-03-07T07:50:15;44.23;;;17.73;;
60730;SDS011;46580;52.114;11.674;2024-03-07T07:52:51;34.93;;;14.77;;
60730;SDS011;46580;52.114;11.674;2024-03-07T07:55:21;33.47;;;16.73;;
60730;SDS011;46580;52.114;11.674;2024-03-07T07:57:52;36.03;;;15.23;;
60730;SDS011;46580;52.114;11.674;2024-03-07T08:00:20;39.80;;;15.57;;
60730;SDS011;46580;52.114;11.674;2024-03-07T08:02:49;37.03;;;15.83;;
60730;SDS011;46580;52.114;11.674;2024-03-07T08:05:19;35.43;;;15.60;;
60730;SDS011;46580;52.114;11.674;2024-03-07T08:07:48;31.57;;;15.30;;
60730;SDS011;46580;52.114;11.674;2024-03-07T08:10:14;37.30;;;17.63;;
60730;SDS011;46580;52.114;11.674;2024-03-07T08:12:40;40.57;;;16.03;;
60730;SDS011;46580;52.114;11.674;2024-03-07T08:15:08;34.60;;;13.87;;
60730;SDS011;46580;52.114;11.674;2024-03-07T08:17:45;38.60;;;14.77;;
60730;SDS011;46580;52.114;11.674;2024-03-07T08:20:12;33.40;;;14.20;;
60730;SDS011;46580;52.114;11.674;2024-03-07T08:22:39;30.00;;;14.20;;
60730;SDS011;46580;52.114;11.674;2024-03-07T08:25:06;35.57;;;16.33;;
60730;SDS011;46580;52.114;11.674;2024-03-07T08:27:34;38.30;;;16.40;;
60730;SDS011;46580;52.114;11.674;2024-03-07T08:30:01;31.73;;;14.83;;
60730;SDS011;46580;52.114;11.674;2024-03-07T08:32:28;27.87;;;13.40;;
60730;SDS011;46580;52.114;11.674;2024-03-07T08:34:54;33.43;;;13.43;;
60730;SDS011;46580;52.114;11.674;2024-03-07T08:37:19;31.17;;;14.33;;
60730;SDS011;46580;52.114;11.674;2024-03-07T08:39:46;27.03;;;12.90;;
60730;SDS011;46580;52.114;11.674;2024-03-07T08:42:11;30.60;;;13.07;;
60730;SDS011;46580;52.114;11.674;2024-03-07T08:44:37;27.13;;;11.90;;
60730;SDS011;46580;52.114;11.674;2024-03-07T08:47:02;30.50;;;14.03;;
60730;SDS011;46580;52.114;11.674;2024-03-07T08:49:28;22.87;;;10.43;;
60730;SDS011;46580;52.114;11.674;2024-03-07T08:51:54;23.60;;;10.43;;
60730;SDS011;46580;52.114;11.674;2024-03-07T08:54:19;18.70;;;8.50;;
60730;SDS011;46580;52.114;11.674;2024-03-07T08:56:45;12.83;;;6.57;;
60730;SDS011;46580;52.114;11.674;2024-03-07T08:59:10;14.77;;;7.67;;
60730;SDS011;46580;52.114;11.674;2024-03-07T09:01:40;17.60;;;8.30;;
60730;SDS011;46580;52.114;11.674;2024-03-07T09:04:08;16.87;;;8.57;;
60730;SDS011;46580;52.114;11.674;2024-03-07T09:06:34;20.43;;;9.10;;
60730;SDS011;46580;52.114;11.674;2024-03-07T09:08:59;16.40;;;8.60;;
60730;SDS011;46580;52.114;11.674;2024-03-07T09:11:25;16.73;;;8.17;;
60730;SDS011;46580;52.114;11.674;2024-03-07T09:13:50;18.70;;;9.27;;
60730;SDS011;46580;52.114;11.674;2024-03-07T09:16:15;19.00;;;8.27;;
60730;SDS011;46580;52.114;11.674;2024-03-07T09:18:41;16.13;;;9.10;;
60730;SDS011;46580;52.114;11.674;2024-03-07T09:21:07;11.10;;;6.97;;
60730;SDS011;46580;52.114;11.674;2024-03-07T09:23:32;17.07;;;8.73;;
60730;SDS011;46580;52.114;11.674;2024-03-07T09:25:58;12.73;;;7.63;;
60730;SDS011;46580;52.114;11.674;2024-03-07T09:28:24;13.47;;;7.97;;
60730;SDS011;46580;52.114;11.674;2024-03-07T09:30:49;12.87;;;7.03;;
60730;SDS011;46580;52.114;11.674;2024-03-07T09:33:16;15.33;;;7.33;;
60730;SDS011;46580;52.114;11.674;2024-03-07T09:35:44;13.90;;;8.73;;
60730;SDS011;46580;52.114;11.674;2024-03-07T09:38:10;22.00;;;8.73;;
60730;SDS011;46580;52.114;11.674;2024-03-07T09:40:36;17.53;;;8.23;;
60730;SDS011;46580;52.114;11.674;2024-03-07T09:43:02;16.57;;;9.23;;
60730;SDS011;46580;52.114;11.674;2024-03-07T09:45:29;15.07;;;7.60;;
60730;SDS011;46580;52.114;11.674;2024-03-07T09:47:58;16.00;;;7.70;;
60730;SDS011;46580;52.114;11.674;2024-03-07T09:50:24;17.17;;;8.20;;
60730;SDS011;46580;52.114;11.674;2024-03-07T09:52:53;16.60;;;8.83;;
60730;SDS011;46580;52.114;11.674;2024-03-07T09:55:18;14.67;;;7.87;;
60730;SDS011;46580;52.114;11.674;2024-03-07T09:57:49;16.60;;;7.37;;
60730;SDS011;46580;52.114;11.674;2024-03-07T10:00:18;16.33;;;8.20;;
60730;SDS011;46580;52.114;11.674;2024-03-07T10:02:56;15.60;;;7.33;;
60730;SDS011;46580;52.114;11.674;2024-03-07T10:05:24;13.40;;;7.67;;
60730;SDS011;46580;52.114;11.674;2024-03-07T10:07:52;14.57;;;6.60;;
60730;SDS011;46580;52.114;11.674;2024-03-07T10:10:18;16.77;;;8.17;;
60730;SDS011;46580;52.114;11.674;2024-03-07T10:12:44;15.87;;;7.63;;
60730;SDS011;46580;52.114;11.674;2024-03-07T10:15:10;15.90;;;8.10;;
60730;SDS011;46580;52.114;11.674;2024-03-07T10:17:38;11.43;;;6.87;;
60730;SDS011;46580;52.114;11.674;2024-03-07T10:20:04;14.23;;;6.77;;
60730;SDS011;46580;52.114;11.674;2024-03-07T10:22:34;12.93;;;5.70;;
60730;SDS011;46580;52.114;11.674;2024-03-07T10:25:01;15.70;;;7.83;;
60730;SDS011;46580;52.114;11.674;2024-03-07T10:27:28;14.17;;;7.70;;
60730;SDS011;46580;52.114;11.674;2024-03-07T10:29:54;12.10;;;6.83;;
60730;SDS011;46580;52.114;11.674;2024-03-07T10:32:21;13.00;;;7.07;;
60730;SDS011;46580;52.114;11.674;2024-03-07T10:34:48;13.20;;;7.07;;
60730;SDS011;46580;52.114;11.674;2024-03-07T10:37:16;10.80;;;6.80;;
60730;SDS011;46580;52.114;11.674;2024-03-07T10:39:45;15.27;;;7.47;;
60730;SDS011;46580;52.114;11.674;2024-03-07T10:42:15;10.90;;;6.53;;
60730;SDS011;46580;52.114;11.674;2024-03-07T10:44:43;15.67;;;7.43;;
60730;SDS011;46580;52.114;11.674;2024-03-07T10:47:09;13.47;;;7.07;;
60730;SDS011;46580;52.114;11.674;2024-03-07T10:49:41;13.80;;;6.67;;
60730;SDS011;46580;52.114;11.674;2024-03-07T10:55:46;6.03;;;4.13;;
60730;SDS011;46580;52.114;11.674;2024-03-07T11:01:27;11.83;;;5.73;;
60730;SDS011;46580;52.114;11.674;2024-03-07T11:03:58;15.20;;;6.20;;
60730;SDS011;46580;52.114;11.674;2024-03-07T11:06:25;7.60;;;5.67;;
60730;SDS011;46580;52.114;11.674;2024-03-07T11:08:51;7.90;;;5.50;;
60730;SDS011;46580;52.114;11.674;2024-03-07T11:11:17;12.03;;;6.20;;
60730;SDS011;46580;52.114;11.674;2024-03-07T11:13:42;10.40;;;5.83;;
60730;SDS011;46580;52.114;11.674;2024-03-07T11:16:10;10.03;;;6.53;;
60730;SDS011;46580;52.114;11.674;2024-03-07T11:18:35;9.53;;;6.10;;
60730;SDS011;46580;52.114;11.674;2024-03-07T11:21:01;10.67;;;5.80;;
60730;SDS011;46580;52.114;11.674;2024-03-07T11:23:31;10.57;;;5.83;;
60730;SDS011;46580;52.114;11.674;2024-03-07T11:26:05;14.23;;;6.70;;
60730;SDS011;46580;52.114;11.674;2024-03-07T11:28:36;12.67;;;6.13;;
60730;SDS011;46580;52.114;11.674;2024-03-07T11:31:47;10.70;;;5.43;;
60730;SDS011;46580;52.114;11.674;2024-03-07T11:34:14;8.23;;;5.50;;
60730;SDS011;46580;52.114;11.674;2024-03-07T11:36:42;12.20;;;5.43;;
60730;SDS011;46580;52.114;11.674;2024-03-07T11:42:04;7.97;;;5.20;;
60730;SDS011;46580;52.114;11.674;2024-03-07T11:44:31;8.00;;;5.03;;
60730;SDS011;46580;52.114;11.674;2024-03-07T11:46:59;11.73;;;5.27;;
60730;SDS011;46580;52.114;11.674;2024-03-07T11:49:33;9.00;;;5.53;;
60730;SDS011;46580;52.114;11.674;2024-03-07T11:52:00;9.70;;;5.60;;
60730;SDS011;46580;52.114;11.674;2024-03-07T11:54:29;11.43;;;5.80;;
60730;SDS011;46580;52.114;11.674;2024-03-07T11:56:56;10.30;;;5.23;;
60730;SDS011;46580;52.114;11.674;2024-03-07T11:59:22;6.73;;;4.87;;
60730;SDS011;46580;52.114;11.674;2024-03-07T12:01:51;7.53;;;5.20;;
60730;SDS011;46580;52.114;11.674;2024-03-07T12:04:19;11.63;;;6.20;;
60730;SDS011;46580;52.114;11.674;2024-03-07T12:06:51;10.30;;;5.57;;
60730;SDS011;46580;52.114;11.674;2024-03-07T12:09:16;12.10;;;6.00;;
60730;SDS011;46580;52.114;11.674;2024-03-07T12:11:49;12.80;;;6.07;;
60730;SDS011;46580;52.114;11.674;2024-03-07T12:14:18;9.97;;;6.00;;
60730;SDS011;46580;52.114;11.674;2024-03-07T12:16:46;8.83;;;5.40;;
60730;SDS011;46580;52.114;11.674;2024-03-07T12:19:12;9.00;;;5.13;;
60730;SDS011;46580;52.114;11.674;2024-03-07T12:21:37;7.83;;;5.43;;
60730;SDS011;46580;52.114;11.674;2024-03-07T12:24:13;10.33;;;5.40;;
60730;SDS011;46580;52.114;11.674;2024-03-07T12:26:40;8.47;;;5.30;;
60730;SDS011;46580;52.114;11.674;2024-03-07T12:29:08;13.47;;;6.27;;
60730;SDS011;46580;52.114;11.674;2024-03-07T12:31:37;15.60;;;5.80;;
60730;SDS011;46580;52.114;11.674;2024-03-07T12:34:05;8.23;;;5.13;;
60730;SDS011;46580;52.114;11.674;2024-03-07T12:36:34;9.37;;;5.07;;
60730;SDS011;46580;52.114;11.674;2024-03-07T12:39:01;9.53;;;5.50;;
60730;SDS011;46580;52.114;11.674;2024-03-07T12:41:34;9.90;;;5.70;;
60730;SDS011;46580;52.114;11.674;2024-03-07T12:44:00;8.93;;;5.33;;
60730;SDS011;46580;52.114;11.674;2024-03-07T12:46:26;10.60;;;5.90;;
60730;SDS011;46580;52.114;11.674;2024-03-07T12:48:53;10.63;;;6.00;;
60730;SDS011;46580;52.114;11.674;2024-03-07T12:51:23;11.20;;;6.17;;
60730;SDS011;46580;52.114;11.674;2024-03-07T12:53:49;10.13;;;5.00;;
60730;SDS011;46580;52.114;11.674;2024-03-07T12:56:15;14.73;;;6.60;;
60730;SDS011;46580;52.114;11.674;2024-03-07T12:58:43;12.00;;;5.73;;
60730;SDS011;46580;52.114;11.674;2024-03-07T13:01:10;9.83;;;6.13;;
60730;SDS011;46580;52.114;11.674;2024-03-07T13:03:36;12.07;;;6.10;;
60730;SDS011;46580;52.114;11.674;2024-03-07T13:06:01;10.30;;;5.47;;
60730;SDS011;46580;52.114;11.674;2024-03-07T13:08:28;10.47;;;6.10;;
60730;SDS011;46580;52.114;11.674;2024-03-07T13:10:56;10.47;;;6.03;;
60730;SDS011;46580;52.114;11.674;2024-03-07T13:13:23;12.53;;;5.53;;
60730;SDS011;46580;52.114;11.674;2024-03-07T13:15:49;8.70;;;4.97;;
60730;SDS011;46580;52.114;11.674;2024-03-07T13:18:19;8.70;;;5.67;;
60730;SDS011;46580;52.114;11.674;2024-03-07T13:20:45;10.43;;;6.87;;
60730;SDS011;46580;52.114;11.674;2024-03-07T13:23:11;13.10;;;5.90;;
60730;SDS011;46580;52.114;11.674;2024-03-07T13:25:37;11.20;;;5.70;;
60730;SDS011;46580;52.114;11.674;2024-03-07T13:28:07;9.43;;;5.63;;
60730;SDS011;46580;52.114;11.674;2024-03-07T13:30:41;10.00;;;5.50;;
60730;SDS011;46580;52.114;11.674;2024-03-07T13:33:08;12.50;;;5.13;;
60730;SDS011;46580;52.114;11.674;2024-03-07T13:35:35;9.60;;;5.40;;
60730;SDS011;46580;52.114;11.674;2024-03-07T13:38:03;7.57;;;5.20;;
60730;SDS011;46580;52.114;11.674;2024-03-07T13:40:29;8.13;;;4.17;;
60730;SDS011;46580;52.114;11.674;2024-03-07T13:42:56;8.60;;;5.50;;
60730;SDS011;46580;52.114;11.674;2024-03-07T13:45:32;8.67;;;5.10;;
60730;SDS011;46580;52.114;11.674;2024-03-07T13:48:06;8.83;;;4.93;;
60730;SDS011;46580;52.114;11.674;2024-03-07T13:50:33;11.40;;;6.30;;
60730;SDS011;46580;52.114;11.674;2024-03-07T13:53:00;10.50;;;5.63;;
60730;SDS011;46580;52.114;11.674;2024-03-07T13:58:44;8.03;;;5.17;;
60730;SDS011;46580;52.114;11.674;2024-03-07T14:04:16;10.13;;;5.33;;
60730;SDS011;46580;52.114;11.674;2024-03-07T14:32:35;11.40;;;5.47;;
60730;SDS011;46580;52.114;11.674;2024-03-07T14:35:13;8.57;;;4.97;;
60730;SDS011;46580;52.114;11.674;2024-03-07T14:38:00;8.70;;;5.00;;
60730;SDS011;46580;52.114;11.674;2024-03-07T14:40:30;9.53;;;5.47;;
60730;SDS011;46580;52.114;11.674;2024-03-07T14:42:56;9.40;;;5.37;;
60730;SDS011;46580;52.114;11.674;2024-03-07T14:45:30;7.93;;;5.60;;
60730;SDS011;46580;52.114;11.674;2024-03-07T14:48:00;9.63;;;4.97;;
60730;SDS011;46580;52.114;11.674;2024-03-07T14:50:27;8.87;;;5.53;;
60730;SDS011;46580;52.114;11.674;2024-03-07T14:52:53;8.17;;;5.30;;
60730;SDS011;46580;52.114;11.674;2024-03-07T14:55:19;9.10;;;5.73;;
60730;SDS011;46580;52.114;11.674;2024-03-07T14:57:46;11.23;;;5.90;;